sensor_id;sensor_type;location;lat;lon;timestamp;P1;durP1;ratioP1;P2;durP2;ratioP2
75209;SDS011;63796;53.136;14.882;2022-12-18T00:01:21;32.30;;;10.50;;
75209;SDS011;63796;53.136;14.882;2022-12-18T00:03:52;37.80;;;12.30;;
75209;SDS011;63796;53.136;14.882;2022-12-18T00:06:20;29.72;;;9.23;;
75209;SDS011;63796;53.136;14.882;2022-12-18T00:08:48;26.75;;;8.38;;
75209;SDS011;63796;53.136;14.882;2022-12-18T00:11:18;23.65;;;7.28;;
75209;SDS011;63796;53.136;14.882;2022-12-18T00:13:47;24.65;;;7.15;;
75209;SDS011;63796;53.136;14.882;2022-12-18T00:16:16;27.50;;;7.40;;
75209;SDS011;63796;53.136;14.882;2022-12-18T00:18:47;27.50;;;7.97;;
75209;SDS011;63796;53.136;14.882;2022-12-18T00:21:18;25.32;;;9.68;;
75209;SDS011;63796;53.136;14.882;2022-12-18T00:23:47;21.37;;;7.72;;
75209;SDS011;63796;53.136;14.882;2022-12-18T00:26:20;23.42;;;7.80;;
75209;SDS011;63796;53.136;14.882;2022-12-18T00:28:53;19.67;;;5.90;;
75209;SDS011;63796;53.136;14.882;2022-12-18T00:31:23;22.75;;;6.75;;
75209;SDS011;63796;53.136;14.882;2022-12-18T00:33:50;18.75;;;6.67;;
75209;SDS011;63796;53.136;14.882;2022-12-18T00:36:20;20.23;;;6.55;;
75209;SDS011;63796;53.136;14.882;2022-12-18T00:38:50;19.90;;;6.58;;
75209;SDS011;63796;53.136;14.882;2022-12-18T00:41:19;25.00;;;6.27;;
75209;SDS011;63796;53.136;14.882;2022-12-18T00:44:06;21.20;;;6.78;;
75209;SDS011;63796;53.136;14.882;2022-12-18T00:46:36;20.23;;;6.40;;
75209;SDS011;63796;53.136;14.882;2022-12-18T00:49:03;20.72;;;6.47;;
75209;SDS011;63796;53.136;14.882;2022-12-18T00:51:30;18.20;;;5.47;;
75209;SDS011;63796;53.136;14.882;2022-12-18T00:53:57;17.17;;;5.77;;
75209;SDS011;63796;53.136;14.882;2022-12-18T00:56:24;17.90;;;5.87;;
75209;SDS011;63796;53.136;14.882;2022-12-18T00:58:51;23.10;;;6.62;;
75209;SDS011;63796;53.136;14.882;2022-12-18T01:01:18;17.32;;;6.42;;
75209;SDS011;63796;53.136;14.882;2022-12-18T01:03:45;20.85;;;6.78;;
75209;SDS011;63796;53.136;14.882;2022-12-18T01:06:12;17.83;;;6.37;;
75209;SDS011;63796;53.136;14.882;2022-12-18T01:08:41;20.77;;;6.28;;
75209;SDS011;63796;53.136;14.882;2022-12-18T01:11:13;21.70;;;6.85;;
75209;SDS011;63796;53.136;14.882;2022-12-18T01:13:40;22.52;;;7.12;;
75209;SDS011;63796;53.136;14.882;2022-12-18T01:16:08;19.37;;;7.30;;
75209;SDS011;63796;53.136;14.882;2022-12-18T01:18:37;18.27;;;6.33;;
75209;SDS011;63796;53.136;14.882;2022-12-18T01:21:06;21.65;;;6.65;;
75209;SDS011;63796;53.136;14.882;2022-12-18T01:23:38;21.52;;;6.15;;
75209;SDS011;63796;53.136;14.882;2022-12-18T01:26:06;24.27;;;7.25;;
75209;SDS011;63796;53.136;14.882;2022-12-18T01:28:35;20.72;;;6.85;;
75209;SDS011;63796;53.136;14.882;2022-12-18T01:31:09;27.80;;;8.63;;
75209;SDS011;63796;53.136;14.882;2022-12-18T01:33:56;30.25;;;8.13;;
75209;SDS011;63796;53.136;14.882;2022-12-18T01:36:29;25.77;;;8.10;;
75209;SDS011;63796;53.136;14.882;2022-12-18T01:38:56;21.68;;;7.42;;
75209;SDS011;63796;53.136;14.882;2022-12-18T01:41:27;22.20;;;6.67;;
75209;SDS011;63796;53.136;14.882;2022-12-18T01:43:58;24.57;;;7.77;;
75209;SDS011;63796;53.136;14.882;2022-12-18T01:46:26;27.20;;;8.40;;
75209;SDS011;63796;53.136;14.882;2022-12-18T01:48:54;26.70;;;8.58;;
75209;SDS011;63796;53.136;14.882;2022-12-18T01:51:25;29.98;;;9.93;;
75209;SDS011;63796;53.136;14.882;2022-12-18T01:53:55;29.32;;;9.40;;
75209;SDS011;63796;53.136;14.882;2022-12-18T01:56:24;32.33;;;9.93;;
75209;SDS011;63796;53.136;14.882;2022-12-18T01:58:55;29.57;;;9.83;;
75209;SDS011;63796;53.136;14.882;2022-12-18T02:01:29;32.73;;;10.43;;
75209;SDS011;63796;53.136;14.882;2022-12-18T02:04:43;32.85;;;10.08;;
75209;SDS011;63796;53.136;14.882;2022-12-18T02:06:51;29.77;;;10.00;;
75209;SDS011;63796;53.136;14.882;2022-12-18T02:09:34;26.33;;;8.90;;
75209;SDS011;63796;53.136;14.882;2022-12-18T02:12:23;36.53;;;11.25;;
75209;SDS011;63796;53.136;14.882;2022-12-18T02:14:55;29.02;;;9.98;;
75209;SDS011;63796;53.136;14.882;2022-12-18T02:17:35;28.00;;;9.68;;
75209;SDS011;63796;53.136;14.882;2022-12-18T02:20:16;34.85;;;11.08;;
75209;SDS011;63796;53.136;14.882;2022-12-18T02:23:12;32.43;;;11.07;;
75209;SDS011;63796;53.136;14.882;2022-12-18T02:26:07;33.78;;;10.15;;
75209;SDS011;63796;53.136;14.882;2022-12-18T02:28:49;31.42;;;10.18;;
75209;SDS011;63796;53.136;14.882;2022-12-18T02:31:23;27.15;;;9.25;;
75209;SDS011;63796;53.136;14.882;2022-12-18T02:33:55;25.27;;;8.93;;
75209;SDS011;63796;53.136;14.882;2022-12-18T02:36:26;24.50;;;8.97;;
75209;SDS011;63796;53.136;14.882;2022-12-18T02:38:55;31.97;;;9.03;;
75209;SDS011;63796;53.136;14.882;2022-12-18T02:41:25;39.18;;;9.70;;
75209;SDS011;63796;53.136;14.882;2022-12-18T02:43:55;28.90;;;9.38;;
75209;SDS011;63796;53.136;14.882;2022-12-18T02:46:32;30.52;;;10.20;;
75209;SDS011;63796;53.136;14.882;2022-12-18T02:55:15;25.52;;;8.98;;
75209;SDS011;63796;53.136;14.882;2022-12-18T03:08:58;31.17;;;8.25;;
75209;SDS011;63796;53.136;14.882;2022-12-18T03:11:32;29.10;;;9.23;;
75209;SDS011;63796;53.136;14.882;2022-12-18T03:14:22;30.20;;;7.92;;
75209;SDS011;63796;53.136;14.882;2022-12-18T03:16:53;31.03;;;9.07;;
75209;SDS011;63796;53.136;14.882;2022-12-18T03:19:25;27.17;;;8.10;;
75209;SDS011;63796;53.136;14.882;2022-12-18T03:21:56;19.65;;;6.85;;
75209;SDS011;63796;53.136;14.882;2022-12-18T03:24:26;24.52;;;7.17;;
75209;SDS011;63796;53.136;14.882;2022-12-18T03:27:01;25.02;;;8.68;;
75209;SDS011;63796;53.136;14.882;2022-12-18T03:29:33;26.23;;;8.40;;
75209;SDS011;63796;53.136;14.882;2022-12-18T03:32:11;26.90;;;7.75;;
75209;SDS011;63796;53.136;14.882;2022-12-18T03:34:38;23.50;;;9.25;;
75209;SDS011;63796;53.136;14.882;2022-12-18T03:37:08;27.62;;;9.03;;
75209;SDS011;63796;53.136;14.882;2022-12-18T03:39:36;22.05;;;7.05;;
75209;SDS011;63796;53.136;14.882;2022-12-18T03:42:15;28.60;;;9.33;;
75209;SDS011;63796;53.136;14.882;2022-12-18T03:45:06;29.18;;;8.20;;
75209;SDS011;63796;53.136;14.882;2022-12-18T03:48:08;28.67;;;9.38;;
75209;SDS011;63796;53.136;14.882;2022-12-18T03:53:20;20.62;;;8.35;;
75209;SDS011;63796;53.136;14.882;2022-12-18T03:56:07;20.77;;;7.43;;
75209;SDS011;63796;53.136;14.882;2022-12-18T03:58:36;19.42;;;6.80;;
75209;SDS011;63796;53.136;14.882;2022-12-18T04:01:06;22.65;;;7.72;;
75209;SDS011;63796;53.136;14.882;2022-12-18T04:03:36;18.73;;;6.95;;
75209;SDS011;63796;53.136;14.882;2022-12-18T04:06:04;25.90;;;7.33;;
75209;SDS011;63796;53.136;14.882;2022-12-18T04:08:33;22.80;;;7.40;;
75209;SDS011;63796;53.136;14.882;2022-12-18T04:11:01;28.67;;;7.85;;
75209;SDS011;63796;53.136;14.882;2022-12-18T04:13:30;21.27;;;7.08;;
75209;SDS011;63796;53.136;14.882;2022-12-18T04:16:03;22.37;;;8.53;;
75209;SDS011;63796;53.136;14.882;2022-12-18T04:18:30;23.67;;;8.40;;
75209;SDS011;63796;53.136;14.882;2022-12-18T04:20:57;23.57;;;7.67;;
75209;SDS011;63796;53.136;14.882;2022-12-18T04:23:24;23.27;;;7.67;;
75209;SDS011;63796;53.136;14.882;2022-12-18T04:25:51;23.38;;;7.47;;
75209;SDS011;63796;53.136;14.882;2022-12-18T04:28:17;24.55;;;7.20;;
75209;SDS011;63796;53.136;14.882;2022-12-18T04:30:44;21.60;;;7.70;;
75209;SDS011;63796;53.136;14.882;2022-12-18T04:33:12;26.03;;;8.10;;
75209;SDS011;63796;53.136;14.882;2022-12-18T04:35:40;23.70;;;7.87;;
75209;SDS011;63796;53.136;14.882;2022-12-18T04:38:07;27.32;;;8.60;;
75209;SDS011;63796;53.136;14.882;2022-12-18T04:40:38;24.67;;;8.30;;
75209;SDS011;63796;53.136;14.882;2022-12-18T04:43:05;23.65;;;7.67;;
75209;SDS011;63796;53.136;14.882;2022-12-18T04:45:32;23.97;;;7.33;;
75209;SDS011;63796;53.136;14.882;2022-12-18T04:47:59;23.45;;;8.28;;
75209;SDS011;63796;53.136;14.882;2022-12-18T04:50:28;24.50;;;7.92;;
75209;SDS011;63796;53.136;14.882;2022-12-18T04:52:55;26.30;;;8.68;;
75209;SDS011;63796;53.136;14.882;2022-12-18T04:55:22;18.02;;;7.75;;
75209;SDS011;63796;53.136;14.882;2022-12-18T04:57:49;19.77;;;7.47;;
75209;SDS011;63796;53.136;14.882;2022-12-18T05:00:16;20.52;;;7.78;;
75209;SDS011;63796;53.136;14.882;2022-12-18T05:02:43;23.30;;;8.38;;
75209;SDS011;63796;53.136;14.882;2022-12-18T05:05:10;21.75;;;7.83;;
75209;SDS011;63796;53.136;14.882;2022-12-18T05:07:37;24.47;;;7.78;;
75209;SDS011;63796;53.136;14.882;2022-12-18T05:10:05;22.33;;;7.13;;
75209;SDS011;63796;53.136;14.882;2022-12-18T05:12:32;19.85;;;6.35;;
75209;SDS011;63796;53.136;14.882;2022-12-18T05:14:59;22.37;;;6.40;;
75209;SDS011;63796;53.136;14.882;2022-12-18T05:17:26;18.37;;;6.80;;
75209;SDS011;63796;53.136;14.882;2022-12-18T05:19:53;19.60;;;6.55;;
75209;SDS011;63796;53.136;14.882;2022-12-18T05:22:20;20.27;;;6.70;;
75209;SDS011;63796;53.136;14.882;2022-12-18T05:24:47;21.57;;;7.20;;
75209;SDS011;63796;53.136;14.882;2022-12-18T05:27:13;24.43;;;7.62;;
75209;SDS011;63796;53.136;14.882;2022-12-18T05:29:40;28.80;;;8.60;;
75209;SDS011;63796;53.136;14.882;2022-12-18T05:32:07;24.67;;;7.65;;
75209;SDS011;63796;53.136;14.882;2022-12-18T05:34:34;24.27;;;7.90;;
75209;SDS011;63796;53.136;14.882;2022-12-18T05:37:03;22.70;;;7.85;;
75209;SDS011;63796;53.136;14.882;2022-12-18T05:39:30;20.27;;;6.30;;
75209;SDS011;63796;53.136;14.882;2022-12-18T05:41:57;22.98;;;7.92;;
75209;SDS011;63796;53.136;14.882;2022-12-18T05:44:24;19.57;;;6.62;;
75209;SDS011;63796;53.136;14.882;2022-12-18T05:46:51;23.80;;;6.23;;
75209;SDS011;63796;53.136;14.882;2022-12-18T05:49:18;22.50;;;6.97;;
75209;SDS011;63796;53.136;14.882;2022-12-18T05:51:44;20.23;;;7.17;;
75209;SDS011;63796;53.136;14.882;2022-12-18T05:54:11;24.57;;;7.62;;
75209;SDS011;63796;53.136;14.882;2022-12-18T05:56:38;28.40;;;7.90;;
75209;SDS011;63796;53.136;14.882;2022-12-18T05:59:05;29.33;;;7.73;;
75209;SDS011;63796;53.136;14.882;2022-12-18T06:01:32;27.45;;;8.80;;
75209;SDS011;63796;53.136;14.882;2022-12-18T06:03:59;27.17;;;8.68;;
75209;SDS011;63796;53.136;14.882;2022-12-18T06:06:26;22.25;;;7.67;;
75209;SDS011;63796;53.136;14.882;2022-12-18T06:08:54;28.32;;;8.20;;
75209;SDS011;63796;53.136;14.882;2022-12-18T06:11:24;29.03;;;7.97;;
75209;SDS011;63796;53.136;14.882;2022-12-18T06:13:52;24.75;;;8.08;;
75209;SDS011;63796;53.136;14.882;2022-12-18T06:16:21;20.77;;;5.75;;
75209;SDS011;63796;53.136;14.882;2022-12-18T06:18:48;18.62;;;6.45;;
75209;SDS011;63796;53.136;14.882;2022-12-18T06:21:15;23.18;;;6.97;;
75209;SDS011;63796;53.136;14.882;2022-12-18T06:23:42;20.50;;;6.30;;
75209;SDS011;63796;53.136;14.882;2022-12-18T06:26:10;20.23;;;6.42;;
75209;SDS011;63796;53.136;14.882;2022-12-18T06:28:39;25.57;;;6.45;;
75209;SDS011;63796;53.136;14.882;2022-12-18T06:31:06;19.95;;;7.30;;
75209;SDS011;63796;53.136;14.882;2022-12-18T06:33:34;23.60;;;6.95;;
75209;SDS011;63796;53.136;14.882;2022-12-18T06:36:06;18.57;;;6.20;;
75209;SDS011;63796;53.136;14.882;2022-12-18T06:38:37;16.25;;;5.50;;
75209;SDS011;63796;53.136;14.882;2022-12-18T06:41:07;23.35;;;7.15;;
75209;SDS011;63796;53.136;14.882;2022-12-18T06:43:36;22.10;;;7.60;;
75209;SDS011;63796;53.136;14.882;2022-12-18T06:46:04;20.05;;;7.10;;
75209;SDS011;63796;53.136;14.882;2022-12-18T06:48:31;16.67;;;6.00;;
75209;SDS011;63796;53.136;14.882;2022-12-18T06:50:59;22.73;;;7.22;;
75209;SDS011;63796;53.136;14.882;2022-12-18T06:53:27;22.73;;;7.40;;
75209;SDS011;63796;53.136;14.882;2022-12-18T06:56:04;24.98;;;7.80;;
75209;SDS011;63796;53.136;14.882;2022-12-18T06:58:33;22.60;;;7.58;;
75209;SDS011;63796;53.136;14.882;2022-12-18T07:01:05;18.37;;;6.60;;
75209;SDS011;63796;53.136;14.882;2022-12-18T07:03:31;20.82;;;6.97;;
75209;SDS011;63796;53.136;14.882;2022-12-18T07:05:58;20.55;;;7.22;;
75209;SDS011;63796;53.136;14.882;2022-12-18T07:08:25;19.00;;;7.65;;
75209;SDS011;63796;53.136;14.882;2022-12-18T07:10:52;17.85;;;7.35;;
75209;SDS011;63796;53.136;14.882;2022-12-18T07:13:19;18.47;;;6.60;;
75209;SDS011;63796;53.136;14.882;2022-12-18T07:15:46;18.62;;;7.22;;
75209;SDS011;63796;53.136;14.882;2022-12-18T07:18:13;21.07;;;7.65;;
75209;SDS011;63796;53.136;14.882;2022-12-18T07:20:40;19.65;;;6.55;;
75209;SDS011;63796;53.136;14.882;2022-12-18T07:23:07;23.62;;;7.87;;
75209;SDS011;63796;53.136;14.882;2022-12-18T07:25:34;18.83;;;6.63;;
75209;SDS011;63796;53.136;14.882;2022-12-18T07:28:03;24.60;;;8.15;;
75209;SDS011;63796;53.136;14.882;2022-12-18T07:30:30;24.80;;;8.70;;
75209;SDS011;63796;53.136;14.882;2022-12-18T07:32:57;25.00;;;8.60;;
75209;SDS011;63796;53.136;14.882;2022-12-18T07:35:24;24.32;;;8.53;;
75209;SDS011;63796;53.136;14.882;2022-12-18T07:37:51;22.53;;;7.67;;
75209;SDS011;63796;53.136;14.882;2022-12-18T07:40:18;26.25;;;9.30;;
75209;SDS011;63796;53.136;14.882;2022-12-18T07:42:45;29.70;;;9.75;;
75209;SDS011;63796;53.136;14.882;2022-12-18T07:45:11;23.80;;;8.78;;
75209;SDS011;63796;53.136;14.882;2022-12-18T07:47:38;28.70;;;10.32;;
75209;SDS011;63796;53.136;14.882;2022-12-18T07:50:07;25.50;;;9.57;;
75209;SDS011;63796;53.136;14.882;2022-12-18T07:52:34;30.02;;;9.90;;
75209;SDS011;63796;53.136;14.882;2022-12-18T07:55:01;23.30;;;8.88;;
75209;SDS011;63796;53.136;14.882;2022-12-18T07:57:28;24.95;;;8.63;;
75209;SDS011;63796;53.136;14.882;2022-12-18T07:59:56;25.35;;;9.43;;
75209;SDS011;63796;53.136;14.882;2022-12-18T08:02:22;28.23;;;10.10;;
75209;SDS011;63796;53.136;14.882;2022-12-18T08:04:49;18.40;;;7.10;;
75209;SDS011;63796;53.136;14.882;2022-12-18T08:07:16;22.85;;;8.48;;
75209;SDS011;63796;53.136;14.882;2022-12-18T08:09:43;21.68;;;7.83;;
75209;SDS011;63796;53.136;14.882;2022-12-18T08:12:10;21.52;;;8.48;;
75209;SDS011;63796;53.136;14.882;2022-12-18T08:14:37;25.63;;;9.57;;
75209;SDS011;63796;53.136;14.882;2022-12-18T08:17:04;23.57;;;7.50;;
75209;SDS011;63796;53.136;14.882;2022-12-18T08:19:31;22.93;;;8.40;;
75209;SDS011;63796;53.136;14.882;2022-12-18T08:21:57;25.68;;;8.15;;
75209;SDS011;63796;53.136;14.882;2022-12-18T08:24:24;28.50;;;10.70;;
75209;SDS011;63796;53.136;14.882;2022-12-18T08:26:51;22.30;;;8.20;;
75209;SDS011;63796;53.136;14.882;2022-12-18T08:29:18;22.58;;;8.38;;
75209;SDS011;63796;53.136;14.882;2022-12-18T08:31:45;23.45;;;8.80;;
75209;SDS011;63796;53.136;14.882;2022-12-18T08:34:12;23.65;;;7.72;;
75209;SDS011;63796;53.136;14.882;2022-12-18T08:36:39;22.50;;;8.83;;
75209;SDS011;63796;53.136;14.882;2022-12-18T08:39:06;26.37;;;9.37;;
75209;SDS011;63796;53.136;14.882;2022-12-18T08:41:33;23.35;;;8.68;;
75209;SDS011;63796;53.136;14.882;2022-12-18T08:43:59;21.07;;;7.78;;
75209;SDS011;63796;53.136;14.882;2022-12-18T08:46:44;22.27;;;8.15;;
75209;SDS011;63796;53.136;14.882;2022-12-18T08:49:11;18.75;;;6.40;;
75209;SDS011;63796;53.136;14.882;2022-12-18T08:51:38;17.53;;;7.13;;
75209;SDS011;63796;53.136;14.882;2022-12-18T08:54:06;19.73;;;7.17;;
75209;SDS011;63796;53.136;14.882;2022-12-18T08:56:33;19.42;;;6.70;;
75209;SDS011;63796;53.136;14.882;2022-12-18T08:59:00;19.95;;;6.25;;
75209;SDS011;63796;53.136;14.882;2022-12-18T09:01:27;21.20;;;8.58;;
75209;SDS011;63796;53.136;14.882;2022-12-18T09:03:54;21.57;;;7.47;;
75209;SDS011;63796;53.136;14.882;2022-12-18T09:06:21;17.98;;;6.37;;
75209;SDS011;63796;53.136;14.882;2022-12-18T09:08:49;25.92;;;7.75;;
75209;SDS011;63796;53.136;14.882;2022-12-18T09:11:20;19.98;;;7.65;;
75209;SDS011;63796;53.136;14.882;2022-12-18T09:13:51;22.35;;;7.37;;
75209;SDS011;63796;53.136;14.882;2022-12-18T09:16:19;18.43;;;7.67;;
75209;SDS011;63796;53.136;14.882;2022-12-18T09:18:48;25.80;;;8.65;;
75209;SDS011;63796;53.136;14.882;2022-12-18T09:21:15;18.75;;;7.50;;
75209;SDS011;63796;53.136;14.882;2022-12-18T09:23:49;21.10;;;7.15;;
75209;SDS011;63796;53.136;14.882;2022-12-18T09:26:18;19.37;;;7.65;;
75209;SDS011;63796;53.136;14.882;2022-12-18T09:28:45;22.60;;;8.17;;
75209;SDS011;63796;53.136;14.882;2022-12-18T09:31:12;21.65;;;7.95;;
75209;SDS011;63796;53.136;14.882;2022-12-18T09:33:39;24.72;;;8.10;;
75209;SDS011;63796;53.136;14.882;2022-12-18T09:36:07;22.70;;;8.18;;
75209;SDS011;63796;53.136;14.882;2022-12-18T09:38:37;23.95;;;8.68;;
75209;SDS011;63796;53.136;14.882;2022-12-18T09:47:04;23.42;;;8.85;;
75209;SDS011;63796;53.136;14.882;2022-12-18T09:49:46;23.10;;;9.63;;
75209;SDS011;63796;53.136;14.882;2022-12-18T09:52:19;17.42;;;6.47;;
75209;SDS011;63796;53.136;14.882;2022-12-18T10:00:58;23.27;;;7.25;;
75209;SDS011;63796;53.136;14.882;2022-12-18T10:03:25;21.35;;;8.90;;
75209;SDS011;63796;53.136;14.882;2022-12-18T10:08:39;22.80;;;9.77;;
75209;SDS011;63796;53.136;14.882;2022-12-18T10:20:13;20.27;;;8.15;;
75209;SDS011;63796;53.136;14.882;2022-12-18T10:26:03;24.15;;;8.95;;
75209;SDS011;63796;53.136;14.882;2022-12-18T10:28:35;21.12;;;8.95;;
75209;SDS011;63796;53.136;14.882;2022-12-18T10:31:05;22.75;;;9.10;;
75209;SDS011;63796;53.136;14.882;2022-12-18T10:33:44;18.50;;;7.20;;
75209;SDS011;63796;53.136;14.882;2022-12-18T10:36:12;22.73;;;9.20;;
75209;SDS011;63796;53.136;14.882;2022-12-18T10:38:38;22.65;;;7.97;;
75209;SDS011;63796;53.136;14.882;2022-12-18T10:41:08;20.92;;;7.45;;
75209;SDS011;63796;53.136;14.882;2022-12-18T10:43:51;16.93;;;8.08;;
75209;SDS011;63796;53.136;14.882;2022-12-18T10:46:37;22.75;;;8.70;;
75209;SDS011;63796;53.136;14.882;2022-12-18T10:49:05;23.03;;;8.43;;
75209;SDS011;63796;53.136;14.882;2022-12-18T10:51:34;26.50;;;9.23;;
75209;SDS011;63796;53.136;14.882;2022-12-18T10:54:04;21.00;;;8.58;;
75209;SDS011;63796;53.136;14.882;2022-12-18T10:56:41;24.35;;;8.73;;
75209;SDS011;63796;53.136;14.882;2022-12-18T10:59:09;21.25;;;8.20;;
75209;SDS011;63796;53.136;14.882;2022-12-18T11:01:54;18.73;;;6.90;;
75209;SDS011;63796;53.136;14.882;2022-12-18T11:04:24;18.25;;;7.50;;
75209;SDS011;63796;53.136;14.882;2022-12-18T11:09:32;19.57;;;7.55;;
75209;SDS011;63796;53.136;14.882;2022-12-18T11:12:18;22.37;;;9.03;;
75209;SDS011;63796;53.136;14.882;2022-12-18T11:14:51;21.43;;;7.10;;
75209;SDS011;63796;53.136;14.882;2022-12-18T11:17:28;19.80;;;7.70;;
75209;SDS011;63796;53.136;14.882;2022-12-18T11:19:59;26.20;;;8.83;;
75209;SDS011;63796;53.136;14.882;2022-12-18T11:22:31;21.12;;;8.33;;
75209;SDS011;63796;53.136;14.882;2022-12-18T11:25:02;23.40;;;9.80;;
75209;SDS011;63796;53.136;14.882;2022-12-18T11:27:39;22.23;;;8.47;;
75209;SDS011;63796;53.136;14.882;2022-12-18T11:30:20;22.30;;;8.60;;
75209;SDS011;63796;53.136;14.882;2022-12-18T11:32:58;22.07;;;8.65;;
75209;SDS011;63796;53.136;14.882;2022-12-18T11:41:00;24.00;;;8.80;;
75209;SDS011;63796;53.136;14.882;2022-12-18T11:44:21;19.37;;;8.10;;
75209;SDS011;63796;53.136;14.882;2022-12-18T11:46:19;23.07;;;9.00;;
75209;SDS011;63796;53.136;14.882;2022-12-18T11:49:12;23.02;;;8.58;;
75209;SDS011;63796;53.136;14.882;2022-12-18T11:51:53;25.82;;;9.38;;
75209;SDS011;63796;53.136;14.882;2022-12-18T11:54:32;23.23;;;8.83;;
75209;SDS011;63796;53.136;14.882;2022-12-18T11:57:23;22.05;;;9.18;;
75209;SDS011;63796;53.136;14.882;2022-12-18T12:00:09;18.42;;;7.87;;
75209;SDS011;63796;53.136;14.882;2022-12-18T12:20:16;21.00;;;8.50;;
75209;SDS011;63796;53.136;14.882;2022-12-18T12:23:49;22.50;;;9.43;;
75209;SDS011;63796;53.136;14.882;2022-12-18T12:25:46;24.35;;;9.43;;
75209;SDS011;63796;53.136;14.882;2022-12-18T12:31:44;19.35;;;8.18;;
75209;SDS011;63796;53.136;14.882;2022-12-18T12:39:15;20.20;;;7.22;;
75209;SDS011;63796;53.136;14.882;2022-12-18T12:41:45;20.12;;;8.45;;
75209;SDS011;63796;53.136;14.882;2022-12-18T12:44:37;17.62;;;7.20;;
75209;SDS011;63796;53.136;14.882;2022-12-18T12:47:10;22.95;;;8.10;;
75209;SDS011;63796;53.136;14.882;2022-12-18T12:49:51;17.20;;;7.60;;
75209;SDS011;63796;53.136;14.882;2022-12-18T12:55:02;20.17;;;8.53;;
75209;SDS011;63796;53.136;14.882;2022-12-18T12:57:34;16.90;;;6.45;;
75209;SDS011;63796;53.136;14.882;2022-12-18T13:00:09;20.23;;;8.18;;
75209;SDS011;63796;53.136;14.882;2022-12-18T13:05:38;18.32;;;8.20;;
75209;SDS011;63796;53.136;14.882;2022-12-18T13:08:27;18.85;;;7.50;;
75209;SDS011;63796;53.136;14.882;2022-12-18T13:10:53;16.90;;;7.40;;
75209;SDS011;63796;53.136;14.882;2022-12-18T13:13:25;16.57;;;6.83;;
75209;SDS011;63796;53.136;14.882;2022-12-18T13:18:34;16.73;;;6.58;;
75209;SDS011;63796;53.136;14.882;2022-12-18T13:21:10;18.65;;;6.47;;
75209;SDS011;63796;53.136;14.882;2022-12-18T13:23:41;19.92;;;7.87;;
75209;SDS011;63796;53.136;14.882;2022-12-18T13:28:53;18.43;;;7.10;;
75209;SDS011;63796;53.136;14.882;2022-12-18T13:34:18;14.35;;;6.25;;
75209;SDS011;63796;53.136;14.882;2022-12-18T13:36:51;18.07;;;7.12;;
75209;SDS011;63796;53.136;14.882;2022-12-18T13:41:54;22.67;;;8.87;;
75209;SDS011;63796;53.136;14.882;2022-12-18T13:44:35;23.20;;;8.18;;
75209;SDS011;63796;53.136;14.882;2022-12-18T13:47:40;20.02;;;7.20;;
75209;SDS011;63796;53.136;14.882;2022-12-18T13:49:54;21.25;;;7.67;;
75209;SDS011;63796;53.136;14.882;2022-12-18T13:52:24;21.52;;;8.15;;
75209;SDS011;63796;53.136;14.882;2022-12-18T13:54:57;18.33;;;7.07;;
75209;SDS011;63796;53.136;14.882;2022-12-18T13:57:29;21.95;;;6.42;;
75209;SDS011;63796;53.136;14.882;2022-12-18T14:00:45;18.00;;;6.62;;
75209;SDS011;63796;53.136;14.882;2022-12-18T14:02:51;24.50;;;8.18;;
75209;SDS011;63796;53.136;14.882;2022-12-18T14:08:04;20.20;;;7.93;;
75209;SDS011;63796;53.136;14.882;2022-12-18T14:10:31;24.80;;;8.25;;
75209;SDS011;63796;53.136;14.882;2022-12-18T14:13:02;20.35;;;8.13;;
75209;SDS011;63796;53.136;14.882;2022-12-18T14:15:33;22.27;;;9.30;;
75209;SDS011;63796;53.136;14.882;2022-12-18T14:21:02;24.60;;;7.93;;
75209;SDS011;63796;53.136;14.882;2022-12-18T14:28:55;20.92;;;7.37;;
75209;SDS011;63796;53.136;14.882;2022-12-18T14:31:29;22.22;;;7.85;;
75209;SDS011;63796;53.136;14.882;2022-12-18T14:33:54;21.97;;;7.30;;
75209;SDS011;63796;53.136;14.882;2022-12-18T14:36:22;15.55;;;5.58;;
75209;SDS011;63796;53.136;14.882;2022-12-18T14:38:52;17.40;;;7.35;;
75209;SDS011;63796;53.136;14.882;2022-12-18T14:41:22;19.37;;;7.17;;
75209;SDS011;63796;53.136;14.882;2022-12-18T14:43:51;22.17;;;7.97;;
75209;SDS011;63796;53.136;14.882;2022-12-18T14:49:20;24.10;;;8.08;;
75209;SDS011;63796;53.136;14.882;2022-12-18T14:51:57;18.40;;;6.75;;
75209;SDS011;63796;53.136;14.882;2022-12-18T14:54:28;25.85;;;8.38;;
75209;SDS011;63796;53.136;14.882;2022-12-18T14:57:01;23.02;;;8.60;;
75209;SDS011;63796;53.136;14.882;2022-12-18T14:59:41;22.70;;;8.60;;
75209;SDS011;63796;53.136;14.882;2022-12-18T15:02:18;23.95;;;9.00;;
75209;SDS011;63796;53.136;14.882;2022-12-18T15:05:02;18.27;;;7.05;;
75209;SDS011;63796;53.136;14.882;2022-12-18T15:07:42;17.95;;;6.50;;
75209;SDS011;63796;53.136;14.882;2022-12-18T15:10:14;19.10;;;6.53;;
75209;SDS011;63796;53.136;14.882;2022-12-18T15:13:06;20.67;;;6.80;;
75209;SDS011;63796;53.136;14.882;2022-12-18T15:18:18;19.80;;;6.67;;
75209;SDS011;63796;53.136;14.882;2022-12-18T15:20:53;16.17;;;6.58;;
75209;SDS011;63796;53.136;14.882;2022-12-18T15:26:12;20.73;;;7.87;;
75209;SDS011;63796;53.136;14.882;2022-12-18T15:28:48;21.62;;;7.33;;
75209;SDS011;63796;53.136;14.882;2022-12-18T15:31:22;18.30;;;6.90;;
75209;SDS011;63796;53.136;14.882;2022-12-18T15:34:02;17.80;;;7.08;;
75209;SDS011;63796;53.136;14.882;2022-12-18T15:36:38;20.15;;;6.62;;
75209;SDS011;63796;53.136;14.882;2022-12-18T15:39:05;16.17;;;6.13;;
75209;SDS011;63796;53.136;14.882;2022-12-18T15:41:32;18.42;;;6.85;;
75209;SDS011;63796;53.136;14.882;2022-12-18T15:44:01;18.62;;;5.80;;
75209;SDS011;63796;53.136;14.882;2022-12-18T15:46:30;19.07;;;6.95;;
75209;SDS011;63796;53.136;14.882;2022-12-18T15:48:57;18.40;;;6.75;;
75209;SDS011;63796;53.136;14.882;2022-12-18T15:51:33;19.13;;;7.37;;
75209;SDS011;63796;53.136;14.882;2022-12-18T15:54:04;20.55;;;7.50;;
75209;SDS011;63796;53.136;14.882;2022-12-18T15:56:35;19.98;;;7.95;;
75209;SDS011;63796;53.136;14.882;2022-12-18T15:59:20;21.33;;;7.20;;
75209;SDS011;63796;53.136;14.882;2022-12-18T16:01:50;24.50;;;7.33;;
75209;SDS011;63796;53.136;14.882;2022-12-18T16:04:21;24.13;;;8.83;;
75209;SDS011;63796;53.136;14.882;2022-12-18T16:06:49;21.95;;;8.23;;
75209;SDS011;63796;53.136;14.882;2022-12-18T16:09:17;24.27;;;7.85;;
75209;SDS011;63796;53.136;14.882;2022-12-18T16:11:44;20.50;;;7.17;;
75209;SDS011;63796;53.136;14.882;2022-12-18T16:14:17;15.58;;;6.03;;
75209;SDS011;63796;53.136;14.882;2022-12-18T16:16:48;22.00;;;7.47;;
75209;SDS011;63796;53.136;14.882;2022-12-18T16:19:18;18.98;;;8.03;;
75209;SDS011;63796;53.136;14.882;2022-12-18T16:21:47;13.72;;;5.47;;
75209;SDS011;63796;53.136;14.882;2022-12-18T16:24:21;17.42;;;6.35;;
75209;SDS011;63796;53.136;14.882;2022-12-18T16:26:48;18.07;;;6.90;;
75209;SDS011;63796;53.136;14.882;2022-12-18T16:29:17;23.33;;;8.13;;
75209;SDS011;63796;53.136;14.882;2022-12-18T16:31:47;25.00;;;8.80;;
75209;SDS011;63796;53.136;14.882;2022-12-18T16:34:21;24.35;;;8.53;;
75209;SDS011;63796;53.136;14.882;2022-12-18T16:36:57;25.12;;;8.43;;
75209;SDS011;63796;53.136;14.882;2022-12-18T16:39:27;29.70;;;9.95;;
75209;SDS011;63796;53.136;14.882;2022-12-18T16:41:54;30.77;;;10.57;;